Air Navigation Services of Czech Republic
Airport: LKKB Updated:  10.08.2020 23:30:25  UTC
 METAR LKKB 10.08. 23:30 ...
METAR LKKB 102330Z 21002KT CAVOK 19/18 Q1018 RMK BLU=
 TAF LKKB 10.08. 17:00 ...
TAF LKKB 101700Z 1018/1118 08004KT CAVOK      BECMG 1021/1023 5000 BR      PROB30 TEMPO 1022/1105 03014G24KT 3500 SHRA SCT010 BKN023CB      BECMG 1106/1108 9999 NSW FEW030      PROB30 TEMPO 1110/1115 05014G24KT 4000 TSRA SCT035CB=